Time;durP1;ratioP1;P1;durP2;ratioP2;P2;SDS_P1;SDS_P2;PMS_P1;PMS_P2;Temp;Humidity;BMP_temperature;BMP_pressure;BME280_temperature;BME280_humidity;BME280_pressure;Samples;Min_cycle;Max_cycle;Signal;HPM_P1;HPM_P2
2021/06/06 00:02:13;;;;;;;10.68;4.15;;;;;;;17.28;77.23;100769.80;1650872;84;61900;-87
2021/06/06 00:04:44;;;;;;;11.20;3.77;;;;;;;17.23;77.10;100769.23;1676429;84;21066;-90
2021/06/06 00:07:08;;;;;;;10.95;3.77;;;;;;;17.20;76.68;100772.13;1676056;84;21860;-90
2021/06/06 00:09:36;;;;;;;9.20;4.40;;;;;;;17.16;76.15;100769.62;1676377;84;21907;-90
2021/06/06 00:12:05;;;;;;;7.72;3.80;;;;;;;17.18;75.75;100774.92;1676361;84;21013;-91
2021/06/06 00:14:35;;;;;;;10.38;4.00;;;;;;;17.16;75.36;100775.04;1677145;84;21017;-91
2021/06/06 00:17:08;;;;;;;11.10;4.35;;;;;;;17.15;75.06;100770.59;1677665;85;20994;-91
2021/06/06 00:19:36;;;;;;;8.80;3.70;;;;;;;17.13;74.60;100771.17;1677325;84;20986;-91
2021/06/06 00:22:03;;;;;;;8.75;4.12;;;;;;;17.07;74.26;100766.61;1659824;85;21815;-91
2021/06/06 00:24:31;;;;;;;8.03;4.00;;;;;;;17.00;74.14;100771.03;1677415;85;21013;-91
2021/06/06 00:26:59;;;;;;;10.08;3.95;;;;;;;16.95;74.14;100774.48;1677860;85;21431;-91
2021/06/06 00:29:26;;;;;;;8.80;3.67;;;;;;;16.91;74.22;100779.70;1676973;83;21233;-91
2021/06/06 00:31:53;;;;;;;18.95;4.12;;;;;;;16.85;73.96;100774.17;1677781;85;20958;-91
2021/06/06 00:34:20;;;;;;;10.72;4.25;;;;;;;16.79;73.97;100779.09;1677432;84;21059;-90
2021/06/06 00:36:48;;;;;;;13.05;4.25;;;;;;;16.74;73.99;100776.19;1657999;84;21094;-90
2021/06/06 00:39:16;;;;;;;7.92;4.20;;;;;;;16.68;74.18;100779.27;1648740;85;21608;-91
2021/06/06 00:41:44;;;;;;;9.48;4.35;;;;;;;16.63;74.32;100777.33;1669571;84;21038;-90
2021/06/06 00:44:13;;;;;;;9.68;4.05;;;;;;;16.56;74.56;100778.17;1658249;84;20958;-89
2021/06/06 00:46:41;;;;;;;10.50;4.37;;;;;;;16.50;74.84;100774.49;1605908;86;22111;-89
2021/06/06 00:49:08;;;;;;;13.60;4.78;;;;;;;16.43;75.22;100774.45;1648903;85;21022;-89
2021/06/06 00:51:45;;;;;;;12.65;5.12;;;;;;;16.36;75.72;100770.37;1648945;85;21474;-88
2021/06/06 00:54:24;;;;;;;10.78;5.08;;;;;;;16.32;76.01;100770.55;1672156;82;21034;-90
2021/06/06 00:57:00;;;;;;;15.60;6.10;;;;;;;16.30;76.39;100772.95;1677545;85;20966;-91
2021/06/06 00:59:28;;;;;;;11.30;5.42;;;;;;;16.30;76.42;100771.59;1655594;84;21257;-90
2021/06/06 01:01:55;;;;;;;16.07;5.92;;;;;;;16.28;76.48;100770.81;1665217;83;27632;-89
2021/06/06 01:04:22;;;;;;;15.72;4.58;;;;;;;16.27;76.40;100766.37;1681908;83;21070;-86
2021/06/06 01:06:53;;;;;;;13.58;4.53;;;;;;;16.26;76.36;100772.28;1660040;83;21534;-90
2021/06/06 01:09:22;;;;;;;12.78;4.90;;;;;;;16.28;76.48;100772.17;1636127;85;21184;-89
2021/06/06 01:12:19;;;;;;;7.87;4.15;;;;;;;16.28;76.50;100769.00;1646266;83;21149;-90
2021/06/06 01:15:16;;;;;;;13.70;4.75;;;;;;;16.29;76.28;100769.39;1671931;83;21444;-87
2021/06/06 01:17:55;;;;;;;13.00;4.00;;;;;;;16.27;76.35;100768.61;1667365;83;21120;-89
2021/06/06 01:21:07;;;;;;;15.10;4.33;;;;;;;16.27;76.59;100772.67;1660646;83;21015;-88
2021/06/06 01:24:12;;;;;;;9.70;4.28;;;;;;;16.23;76.81;100777.84;1617846;86;21637;-90
2021/06/06 01:26:47;;;;;;;11.10;4.67;;;;;;;16.22;77.37;100783.36;1630435;86;21116;-90
2021/06/06 01:29:36;;;;;;;;;;;;;;;16.17;77.69;100784.50;1611741;86;21180;-90
2021/06/06 01:32:23;;;;;;;12.90;4.95;;;;;;;16.11;78.14;100781.28;1630368;86;20158;-88
2021/06/06 01:34:58;;;;;;;11.03;4.42;;;;;;;16.02;78.71;100787.59;1630092;86;21152;-89
2021/06/06 01:37:25;;;;;;;10.88;4.58;;;;;;;15.98;79.11;100779.27;1630513;86;21021;-88
2021/06/06 01:40:10;;;;;;;9.33;4.22;;;;;;;15.92;79.37;100780.98;1650090;85;21227;-89
2021/06/06 01:42:51;;;;;;;7.70;3.80;;;;;;;15.89;79.53;100783.37;1669331;83;21797;-88
2021/06/06 01:45:31;;;;;;;6.60;3.77;;;;;;;15.88;79.63;100784.79;1624685;85;21093;-88
2021/06/06 01:48:02;;;;;;;8.58;4.20;;;;;;;15.85;79.75;100787.67;1676830;83;21554;-88
2021/06/06 01:50:36;;;;;;;8.70;3.83;;;;;;;15.82;79.92;100789.20;1645931;83;21963;-87
2021/06/06 01:53:04;;;;;;;11.83;3.85;;;;;;;15.79;79.99;100786.18;1664483;83;21144;-87
2021/06/06 01:55:33;;;;;;;5.78;3.72;;;;;;;15.76;80.15;100789.92;1659335;85;21335;-86
2021/06/06 01:58:04;;;;;;;14.05;4.33;;;;;;;15.75;80.20;100785.47;1660885;85;21038;-88
2021/06/06 02:00:38;;;;;;;10.53;3.70;;;;;;;15.78;80.26;100790.31;1647880;83;20969;-88
2021/06/06 02:03:07;;;;;;;7.35;3.40;;;;;;;15.76;80.29;100791.27;1644903;87;20976;-87
2021/06/06 02:06:14;;;;;;;7.45;4.03;;;;;;;15.80;80.22;100800.09;1625879;86;20982;-88
2021/06/06 02:08:42;;;;;;;;;;;;;;;15.84;80.22;100799.45;1624332;86;21048;-89
2021/06/06 02:11:32;;;;;;;6.97;4.00;;;;;;;15.88;80.10;100790.20;1640885;86;20149;-90
2021/06/06 02:14:15;;;;;;;9.23;3.83;;;;;;;15.89;80.03;100792.83;1619182;86;21800;-88
2021/06/06 02:16:46;;;;;;;6.58;3.58;;;;;;;15.89;80.08;100789.27;1660311;84;21507;-88
2021/06/06 02:19:24;;;;;;;12.23;3.83;;;;;;;15.90;80.16;100787.81;1642982;84;21188;-89
2021/06/06 02:21:58;;;;;;;7.45;4.12;;;;;;;15.90;80.42;100782.41;1611052;86;21509;-88
2021/06/06 02:24:27;;;;;;;12.33;4.72;;;;;;;15.91;80.82;100787.34;1632032;84;21091;-88
2021/06/06 02:27:05;;;;;;;7.00;3.87;;;;;;;15.91;81.35;100788.70;1651086;84;21100;-88
2021/06/06 02:29:55;;;;;;;7.45;3.92;;;;;;;15.90;81.91;100785.61;1622624;86;21713;-88
2021/06/06 02:32:38;;;;;;;10.88;4.25;;;;;;;15.87;82.68;100784.40;1650774;84;22364;-88
2021/06/06 02:35:22;;;;;;;6.33;3.62;;;;;;;15.82;83.54;100781.09;1633008;84;21316;-88
2021/06/06 02:38:19;;;;;;;5.53;3.37;;;;;;;15.75;84.18;100773.31;1610773;86;21000;-87
2021/06/06 02:41:10;;;;;;;8.10;3.87;;;;;;;15.72;84.90;100772.63;1640531;84;21185;-87
2021/06/06 02:43:43;;;;;;;7.80;3.55;;;;;;;15.70;85.66;100772.70;1664100;84;21109;-87
2021/06/06 02:46:11;;;;;;;9.10;3.60;;;;;;;15.69;86.29;100768.72;1648205;84;21218;-87
2021/06/06 02:48:47;;;;;;;10.32;3.58;;;;;;;15.67;86.95;100771.53;1616312;86;21591;-87
2021/06/06 02:51:18;;;;;;;5.35;3.85;;;;;;;15.68;87.51;100769.22;1605063;87;21749;-88
2021/06/06 02:53:58;;;;;;;6.40;4.10;;;;;;;15.67;88.02;100770.17;1640783;84;21092;-89
2021/06/06 02:56:31;;;;;;;9.80;3.70;;;;;;;15.67;88.46;100772.87;1627152;84;21569;-87
2021/06/06 02:59:25;;;;;;;4.97;3.65;;;;;;;15.65;88.68;100766.69;1654838;84;21120;-87
2021/06/06 03:01:58;;;;;;;8.30;3.70;;;;;;;15.64;89.14;100771.70;1676931;84;37862;-88
2021/06/06 03:04:30;;;;;;;6.45;3.62;;;;;;;15.62;89.30;100773.63;1671890;84;21905;-88
2021/06/06 03:07:03;;;;;;;6.85;3.30;;;;;;;15.60;89.32;100776.89;1654321;84;21967;-88
2021/06/06 03:09:36;;;;;;;5.62;3.25;;;;;;;15.59;89.16;100784.11;1667202;84;21207;-87
2021/06/06 03:12:07;;;;;;;8.50;3.37;;;;;;;15.59;88.83;100783.26;1660436;84;21161;-88
2021/06/06 03:14:39;;;;;;;7.08;3.30;;;;;;;15.59;88.69;100781.41;1658035;84;21503;-88
2021/06/06 03:17:13;;;;;;;6.87;3.15;;;;;;;15.61;88.71;100789.45;1669751;84;21071;-87
2021/06/06 03:19:44;;;;;;;6.95;3.22;;;;;;;15.64;88.66;100791.97;1672967;84;21055;-87
2021/06/06 03:22:18;;;;;;;6.33;3.10;;;;;;;15.67;88.56;100797.20;1623542;84;20881;-88
2021/06/06 03:24:57;;;;;;;7.55;3.02;;;;;;;15.70;88.71;100801.08;1678631;84;21739;-87
2021/06/06 03:27:26;;;;;;;7.35;2.98;;;;;;;15.70;88.64;100802.43;1669908;84;22988;-88
2021/06/06 03:30:10;;;;;;;4.75;3.00;;;;;;;15.68;89.09;100798.95;1670201;84;21513;-89
2021/06/06 03:32:39;;;;;;;5.75;3.02;;;;;;;15.68;89.21;100803.00;1667586;84;21109;-88
2021/06/06 03:35:08;;;;;;;4.78;3.27;;;;;;;15.68;89.41;100794.89;1652451;84;21191;-88
2021/06/06 03:37:37;;;;;;;5.28;3.40;;;;;;;15.73;89.84;100790.59;1668834;84;21128;-87
2021/06/06 03:40:15;;;;;;;4.50;3.10;;;;;;;15.73;89.70;100790.09;1642403;84;21144;-87
2021/06/06 03:42:46;;;;;;;6.55;3.12;;;;;;;15.74;89.68;100790.48;1655201;84;21037;-87
2021/06/06 03:45:14;;;;;;;5.97;3.42;;;;;;;15.75;89.66;100790.02;1664101;84;21096;-89
2021/06/06 03:47:41;;;;;;;8.23;3.15;;;;;;;15.78;89.65;100791.66;1662780;84;21577;-89
2021/06/06 03:50:10;;;;;;;6.40;3.35;;;;;;;15.79;89.60;100783.94;1664112;86;21811;-89
2021/06/06 03:52:40;;;;;;;8.45;3.37;;;;;;;15.81;89.54;100790.16;1663266;86;20993;-89
2021/06/06 03:55:12;;;;;;;7.90;2.65;;;;;;;15.79;89.22;100789.34;1662909;86;21013;-89
2021/06/06 03:57:41;;;;;;;5.08;2.95;;;;;;;15.75;88.99;100781.91;1643338;86;21565;-89
2021/06/06 04:00:14;;;;;;;7.75;2.90;;;;;;;15.73;89.35;100787.39;1641884;86;20970;-90
2021/06/06 04:02:43;;;;;;;6.28;3.10;;;;;;;15.75;89.37;100789.52;1655307;86;21895;-90
2021/06/06 04:05:13;;;;;;;5.55;3.20;;;;;;;15.77;89.29;100785.40;1654905;86;21526;-90
2021/06/06 04:07:40;;;;;;;7.10;3.33;;;;;;;15.80;89.29;100786.57;1654890;86;21009;-90
2021/06/06 04:10:08;;;;;;;5.37;2.98;;;;;;;15.85;89.21;100786.32;1654893;86;21018;-90
2021/06/06 04:12:36;;;;;;;8.90;3.00;;;;;;;15.91;89.26;100784.64;1654740;86;21009;-90
2021/06/06 04:15:04;;;;;;;5.70;3.00;;;;;;;15.95;88.85;100783.50;1653842;85;21518;-88
2021/06/06 04:17:31;;;;;;;3.98;3.02;;;;;;;16.00;88.39;100781.40;1646736;85;21620;-88
2021/06/06 04:19:59;;;;;;;5.87;2.98;;;;;;;16.07;87.72;100777.02;1665318;84;21119;-87
2021/06/06 04:22:27;;;;;;;7.75;3.05;;;;;;;16.12;86.88;100785.72;1659286;85;21155;-87
2021/06/06 04:24:57;;;;;;;5.10;2.75;;;;;;;16.19;86.25;100780.34;1657209;85;21043;-90
2021/06/06 04:27:24;;;;;;;5.37;3.22;;;;;;;16.23;86.13;100772.43;1660694;85;21058;-88
2021/06/06 04:29:53;;;;;;;5.22;2.98;;;;;;;16.22;86.15;100777.95;1672977;84;22492;-88
2021/06/06 04:32:20;;;;;;;4.40;3.00;;;;;;;16.23;85.81;100780.55;1652678;85;21180;-90
2021/06/06 04:34:48;;;;;;;4.90;2.70;;;;;;;16.24;85.80;100780.94;1654299;86;21026;-90
2021/06/06 04:37:16;;;;;;;7.45;3.20;;;;;;;16.24;85.93;100776.88;1653547;86;21086;-90
2021/06/06 04:39:43;;;;;;;7.25;3.70;;;;;;;16.25;85.99;100775.06;1653403;86;21189;-89
2021/06/06 04:42:10;;;;;;;6.17;3.45;;;;;;;16.24;86.39;100780.94;1634467;86;21547;-89
2021/06/06 04:44:38;;;;;;;6.22;3.33;;;;;;;16.25;86.45;100773.24;1654772;86;21057;-89
2021/06/06 04:47:10;;;;;;;9.50;3.70;;;;;;;16.28;86.45;100775.77;1654522;86;21070;-90
2021/06/06 04:49:40;;;;;;;7.40;3.58;;;;;;;16.32;86.40;100768.31;1654329;86;21535;-89
2021/06/06 04:52:10;;;;;;;9.58;3.90;;;;;;;16.33;86.44;100773.66;1653192;86;21265;-89
2021/06/06 04:54:38;;;;;;;4.95;3.27;;;;;;;16.36;86.90;100773.08;1653006;86;21668;-89
2021/06/06 04:57:07;;;;;;;7.40;3.45;;;;;;;16.35;86.78;100773.55;1653500;86;21114;-89
2021/06/06 04:59:36;;;;;;;4.97;2.80;;;;;;;16.37;86.60;100777.52;1653618;86;21076;-89
2021/06/06 05:02:06;;;;;;;6.03;3.50;;;;;;;16.39;86.44;100776.95;1660389;85;41901;-88
2021/06/06 05:04:49;;;;;;;7.58;3.67;;;;;;;16.42;86.84;100784.88;1661276;86;21422;-89
2021/06/06 05:07:19;;;;;;;5.65;3.55;;;;;;;16.40;87.11;100774.17;1674304;85;21040;-90
2021/06/06 05:09:49;;;;;;;4.92;3.47;;;;;;;16.41;87.43;100774.55;1663049;86;21037;-89
2021/06/06 05:12:16;;;;;;;8.05;3.60;;;;;;;16.43;87.76;100771.73;1675409;85;21000;-90
2021/06/06 05:14:44;;;;;;;11.00;3.87;;;;;;;16.42;87.96;100771.34;1661562;86;21039;-89
2021/06/06 05:17:11;;;;;;;5.15;3.80;;;;;;;16.44;88.25;100770.77;1674533;85;21573;-89
2021/06/06 05:19:41;;;;;;;6.65;4.28;;;;;;;16.44;88.96;100770.31;1660694;86;21148;-88
2021/06/06 05:22:08;;;;;;;6.62;3.60;;;;;;;16.41;89.31;100763.73;1674508;85;21261;-89
2021/06/06 05:24:35;;;;;;;9.08;3.80;;;;;;;16.43;89.51;100774.45;1661377;86;21095;-90
2021/06/06 05:27:03;;;;;;;5.62;3.90;;;;;;;16.46;89.36;100769.73;1674576;81;21049;-89
2021/06/06 05:29:30;;;;;;;11.93;3.85;;;;;;;16.50;89.53;100762.31;1662013;85;21169;-88
2021/06/06 05:31:57;;;;;;;5.47;3.45;;;;;;;16.55;89.32;100764.25;1645819;85;21093;-88
2021/06/06 05:34:23;;;;;;;7.45;3.45;;;;;;;16.59;88.57;100764.45;1672802;85;20918;-90
2021/06/06 05:36:50;;;;;;;6.08;3.37;;;;;;;16.57;87.54;100766.38;1676099;85;21406;-91
2021/06/06 05:39:16;;;;;;;6.78;3.77;;;;;;;16.57;87.34;100764.14;1676219;85;21488;-90
2021/06/06 05:41:42;;;;;;;6.30;4.03;;;;;;;16.57;87.19;100774.50;1662771;83;21901;-90
2021/06/06 05:44:09;;;;;;;6.03;3.75;;;;;;;16.56;87.21;100768.70;1676274;85;20972;-90
2021/06/06 05:46:36;;;;;;;9.08;4.00;;;;;;;16.57;86.99;100769.09;1662152;86;21588;-89
2021/06/06 05:49:03;;;;;;;7.22;3.98;;;;;;;16.61;86.35;100767.08;1654915;85;21143;-88
2021/06/06 05:51:30;;;;;;;7.37;3.70;;;;;;;16.67;85.70;100769.88;1642940;86;21207;-89
2021/06/06 05:53:58;;;;;;;6.95;3.72;;;;;;;16.77;85.48;100771.08;1654421;85;21873;-89
2021/06/06 05:56:25;;;;;;;7.70;3.95;;;;;;;16.86;84.91;100762.87;1628932;86;21177;-89
2021/06/06 05:58:53;;;;;;;6.90;3.72;;;;;;;16.98;84.25;100770.27;1658999;85;21112;-89
2021/06/06 06:01:21;;;;;;;11.10;3.83;;;;;;;17.12;84.10;100759.91;1630496;85;37105;-89
2021/06/06 06:03:48;;;;;;;6.28;3.50;;;;;;;17.26;82.97;100762.25;1663889;85;21092;-87
2021/06/06 06:06:17;;;;;;;6.03;3.50;;;;;;;17.39;82.57;100760.52;1652238;85;21146;-87
2021/06/06 06:08:45;;;;;;;4.55;3.45;;;;;;;17.53;82.33;100761.46;1645433;85;21629;-88
2021/06/06 06:11:16;;;;;;;6.35;4.05;;;;;;;17.69;82.00;100757.30;1654962;85;21160;-87
2021/06/06 06:13:43;;;;;;;8.10;4.30;;;;;;;17.87;81.31;100755.21;1646512;85;21224;-91
2021/06/06 06:16:14;;;;;;;7.50;3.92;;;;;;;18.10;80.17;100758.27;1629887;86;21440;-91
2021/06/06 06:18:43;;;;;;;6.40;2.98;;;;;;;18.29;79.48;100761.49;1634323;86;20998;-89
2021/06/06 06:21:13;;;;;;;6.15;3.60;;;;;;;18.48;77.84;100758.89;1664682;85;21044;-90
2021/06/06 06:23:43;;;;;;;8.95;3.90;;;;;;;18.68;74.73;100760.69;1611525;86;21003;-88
2021/06/06 06:26:11;;;;;;;5.90;3.75;;;;;;;18.84;74.06;100761.38;1647837;85;21340;-88
2021/06/06 06:28:42;;;;;;;6.47;3.65;;;;;;;18.99;73.28;100762.67;1640172;86;21044;-87
2021/06/06 06:31:15;;;;;;;8.30;3.47;;;;;;;19.18;72.77;100759.03;1636902;85;20987;-87
2021/06/06 06:33:52;;;;;;;9.28;3.55;;;;;;;19.39;71.56;100750.80;1633801;86;21065;-87
2021/06/06 06:36:21;;;;;;;8.28;3.55;;;;;;;19.58;69.71;100750.34;1641102;85;21018;-88
2021/06/06 06:38:53;;;;;;;8.63;4.22;;;;;;;19.81;70.15;100749.13;1636686;86;21084;-90
2021/06/06 06:41:21;;;;;;;8.00;4.40;;;;;;;19.98;70.64;100750.11;1646977;85;21697;-88
2021/06/06 06:43:50;;;;;;;13.40;4.10;;;;;;;20.16;70.40;100749.71;1649356;86;21621;-88
2021/06/06 06:46:18;;;;;;;9.38;3.65;;;;;;;20.31;70.23;100748.55;1628597;87;21203;-88
2021/06/06 06:48:46;;;;;;;5.60;3.40;;;;;;;20.43;69.55;100749.95;1595544;88;21183;-88
2021/06/06 06:51:14;;;;;;;6.95;3.25;;;;;;;20.49;69.10;100754.94;1633623;86;21140;-89
2021/06/06 06:53:42;;;;;;;6.45;3.10;;;;;;;20.61;68.12;100752.61;1661207;85;21181;-87
2021/06/06 06:56:10;;;;;;;8.93;3.62;;;;;;;20.70;68.42;100748.30;1655446;86;21106;-88
2021/06/06 06:58:42;;;;;;;8.18;3.10;;;;;;;20.78;68.35;100746.83;1668885;85;21080;-88
2021/06/06 07:01:09;;;;;;;6.20;3.47;;;;;;;20.80;67.99;100749.00;1636287;86;51586;-90
2021/06/06 07:03:35;;;;;;;6.95;3.00;;;;;;;20.73;67.77;100754.02;1645331;85;21362;-88
2021/06/06 07:06:05;;;;;;;6.55;2.92;;;;;;;20.69;67.90;100760.70;1683863;85;21144;-90
2021/06/06 07:08:36;;;;;;;4.67;3.40;;;;;;;20.73;68.90;100763.55;1643502;85;21812;-92
2021/06/06 07:11:05;;;;;;;7.22;3.60;;;;;;;20.74;69.50;100769.37;1655782;85;21103;-91
2021/06/06 07:13:33;;;;;;;4.28;3.15;;;;;;;20.67;68.89;100764.01;1651912;85;21161;-91
2021/06/06 07:16:00;;;;;;;6.42;3.33;;;;;;;20.55;68.72;100754.45;1651963;85;21574;-92
2021/06/06 07:18:27;;;;;;;7.30;3.70;;;;;;;20.45;69.19;100754.30;1651809;85;21713;-91
2021/06/06 07:20:57;;;;;;;6.80;4.17;;;;;;;20.39;69.99;100759.34;1652001;85;21660;-90
2021/06/06 07:23:24;;;;;;;5.40;3.25;;;;;;;20.30;71.06;100764.52;1670786;85;21027;-89
2021/06/06 07:25:53;;;;;;;9.83;3.80;;;;;;;20.21;71.98;100757.03;1613839;87;20985;-92
2021/06/06 07:28:22;;;;;;;6.50;3.40;;;;;;;20.13;72.44;100756.75;1653754;85;21105;-89
2021/06/06 07:30:52;;;;;;;6.17;3.50;;;;;;;20.12;73.26;100760.46;1673276;84;21072;-90
2021/06/06 07:33:23;;;;;;;12.73;3.83;;;;;;;20.23;73.80;100763.25;1663182;85;21815;-89
2021/06/06 07:35:52;;;;;;;7.65;3.95;;;;;;;20.37;74.22;100762.20;1650725;85;21633;-91
2021/06/06 07:38:21;;;;;;;9.83;4.25;;;;;;;20.47;74.61;100767.30;1650568;86;21037;-87
2021/06/06 07:40:49;;;;;;;5.83;3.98;;;;;;;20.47;74.65;100771.89;1645075;86;21076;-88
2021/06/06 07:43:16;;;;;;;6.80;4.30;;;;;;;20.47;74.52;100773.25;1649686;85;21150;-89
2021/06/06 07:45:43;;;;;;;8.48;4.35;;;;;;;20.42;74.74;100769.52;1647497;85;21584;-89
2021/06/06 07:48:11;;;;;;;7.22;4.47;;;;;;;20.33;74.00;100775.17;1654564;85;21094;-90
2021/06/06 07:50:42;;;;;;;7.58;4.35;;;;;;;20.26;74.02;100775.27;1651928;85;21078;-91
2021/06/06 07:53:10;;;;;;;6.80;4.12;;;;;;;20.21;73.78;100767.92;1652206;85;21038;-91
2021/06/06 07:55:36;;;;;;;7.08;4.47;;;;;;;20.22;73.36;100765.56;1651938;85;21066;-91
2021/06/06 07:58:04;;;;;;;7.12;4.15;;;;;;;20.23;73.06;100774.14;1651972;85;21693;-88
2021/06/06 08:00:38;;;;;;;8.13;4.50;;;;;;;20.27;72.92;100767.95;1651861;84;48100;-88
2021/06/06 08:07:06;;;;;;;10.95;3.92;;;;;;;20.31;71.87;100764.89;1663797;84;21119;-88
2021/06/06 08:09:32;;;;;;;7.85;3.55;;;;;;;20.29;72.27;100764.14;1662347;86;21684;-88
2021/06/06 08:11:59;;;;;;;5.50;3.25;;;;;;;20.37;72.07;100761.31;1670734;85;21136;-89
2021/06/06 08:14:27;;;;;;;4.85;3.42;;;;;;;20.44;71.19;100768.91;1658144;84;21080;-88
2021/06/06 08:16:54;;;;;;;6.55;3.33;;;;;;;20.53;70.97;100764.61;1663332;84;21331;-88
2021/06/06 08:19:20;;;;;;;4.17;2.77;;;;;;;20.68;70.01;100765.78;1663296;84;21052;-88
2021/06/06 08:21:49;;;;;;;8.55;3.02;;;;;;;20.77;67.90;100770.49;1664282;84;21109;-88
2021/06/06 08:24:16;;;;;;;2.72;2.37;;;;;;;20.85;66.96;100776.74;1663611;84;21638;-88
2021/06/06 08:26:42;;;;;;;7.35;2.58;;;;;;;20.92;65.68;100777.14;1663471;84;21058;-88
2021/06/06 08:29:11;;;;;;;4.45;2.20;;;;;;;21.01;64.10;100782.73;1662551;84;21515;-90
2021/06/06 08:31:39;;;;;;;6.05;2.58;;;;;;;21.12;63.00;100782.36;1664712;85;21514;-89
2021/06/06 08:34:07;;;;;;;5.47;2.35;;;;;;;21.19;62.03;100779.51;1664995;85;21105;-90
2021/06/06 08:36:39;;;;;;;4.37;2.15;;;;;;;21.26;61.95;100781.26;1664701;85;21634;-90
2021/06/06 08:39:10;;;;;;;3.15;2.30;;;;;;;21.30;61.30;100782.27;1665175;85;21315;-89
2021/06/06 08:42:05;;;;;;;3.80;2.15;;;;;;;21.38;60.20;100786.22;1664172;85;21093;-89
2021/06/06 08:44:38;;;;;;;3.80;2.72;;;;;;;21.40;60.17;100788.33;1663891;84;21108;-89
2021/06/06 08:47:15;;;;;;;3.10;2.47;;;;;;;21.46;60.36;100790.06;1664597;84;21594;-88
2021/06/06 08:49:52;;;;;;;4.12;2.40;;;;;;;21.54;60.24;100785.84;1659449;84;21910;-90
2021/06/06 08:53:15;;;;;;;9.43;2.60;;;;;;;21.62;60.33;100786.10;1661841;84;21069;-90
2021/06/06 08:56:20;;;;;;;2.77;2.10;;;;;;;21.78;59.77;100785.74;1663417;85;20961;-89
2021/06/06 08:59:13;;;;;;;3.87;2.30;;;;;;;21.90;58.76;100789.32;1663574;85;20926;-89
2021/06/06 09:01:45;;;;;;;4.20;2.20;;;;;;;21.93;57.59;100790.42;1662228;84;44893;-90
2021/06/06 09:04:31;;;;;;;3.35;2.33;;;;;;;21.96;56.74;100781.12;1648563;86;21757;-87
2021/06/06 09:07:37;;;;;;;7.08;3.60;;;;;;;21.99;57.13;100788.55;1659665;84;21125;-88
2021/06/06 09:10:12;;;;;;;3.50;2.40;;;;;;;22.04;57.03;100782.23;1658965;85;21139;-88
2021/06/06 09:12:38;;;;;;;;;;;;;;;22.10;57.38;100782.19;1661792;85;21129;-88
2021/06/06 09:15:08;;;;;;;5.17;2.25;;;;;;;22.13;57.22;100776.98;1668251;85;20176;-88
2021/06/06 09:17:40;;;;;;;6.42;2.77;;;;;;;22.23;57.31;100784.78;1655804;86;21490;-88
2021/06/06 09:20:26;;;;;;;3.10;2.72;;;;;;;22.31;57.08;100785.00;1661873;84;21191;-89
2021/06/06 09:23:16;;;;;;;5.07;3.47;;;;;;;22.27;57.33;100786.26;1660705;85;21061;-89
2021/06/06 09:25:47;;;;;;;4.15;2.65;;;;;;;22.27;57.33;100786.26;1659466;84;21563;-87
2021/06/06 09:28:22;;;;;;;3.62;2.52;;;;;;;22.18;57.58;100781.55;1636199;85;21165;-87
2021/06/06 09:31:07;;;;;;;3.27;2.52;;;;;;;22.20;57.75;100779.55;1646881;84;23076;-88
2021/06/06 09:33:47;;;;;;;5.40;3.05;;;;;;;22.23;58.37;100777.96;1658629;84;22099;-89
2021/06/06 09:36:26;;;;;;;3.55;2.40;;;;;;;22.40;57.95;100783.35;1656708;84;21077;-88
2021/06/06 09:39:04;;;;;;;4.35;2.05;;;;;;;22.70;56.21;100784.99;1658238;84;21131;-87
2021/06/06 09:41:43;;;;;;;4.20;2.10;;;;;;;22.99;54.27;100781.59;1657017;84;21169;-89
2021/06/06 09:44:18;;;;;;;3.65;2.00;;;;;;;23.13;52.58;100781.25;1657501;84;21120;-88
2021/06/06 09:46:54;;;;;;;2.65;1.90;;;;;;;23.18;51.85;100776.72;1654921;84;21030;-88
2021/06/06 09:49:36;;;;;;;4.62;2.35;;;;;;;23.28;51.34;100767.23;1642616;85;21249;-88
2021/06/06 09:52:24;;;;;;;5.67;2.42;;;;;;;23.49;49.85;100771.30;1657469;84;21639;-87
2021/06/06 09:54:54;;;;;;;2.87;2.02;;;;;;;23.63;48.03;100764.58;1632596;87;21602;-90
2021/06/06 09:57:27;;;;;;;3.98;1.80;;;;;;;23.66;47.25;100754.72;1651913;84;21211;-89
2021/06/06 10:00:23;;;;;;;2.27;1.85;;;;;;;23.72;48.18;100768.35;1656032;85;21592;-90
2021/06/06 10:02:56;;;;;;;2.25;1.75;;;;;;;23.77;47.90;100767.94;1649385;85;50834;-90
2021/06/06 10:05:40;;;;;;;4.07;2.10;;;;;;;23.77;47.94;100774.78;1648576;84;21076;-89
2021/06/06 10:08:26;;;;;;;7.75;2.12;;;;;;;23.83;47.84;100770.11;1659543;84;21345;-90
2021/06/06 10:11:12;;;;;;;3.30;2.20;;;;;;;23.83;47.61;100764.12;1659364;84;21602;-89
2021/06/06 10:13:45;;;;;;;2.52;2.25;;;;;;;23.81;48.19;100768.87;1661762;84;21098;-91
2021/06/06 10:16:14;;;;;;;5.65;2.85;;;;;;;23.86;48.85;100767.09;1660998;84;21886;-89
2021/06/06 10:18:48;;;;;;;5.10;3.25;;;;;;;23.97;49.77;100768.84;1660375;84;21065;-90
2021/06/06 10:21:21;;;;;;;6.95;3.50;;;;;;;24.09;51.03;100758.66;1660247;85;21047;-89
2021/06/06 10:23:54;;;;;;;5.58;4.15;;;;;;;24.18;51.54;100755.05;1657966;84;21795;-88
2021/06/06 10:26:53;;;;;;;8.90;3.90;;;;;;;24.23;51.67;100759.63;1660150;84;21006;-89
2021/06/06 10:29:40;;;;;;;4.60;3.67;;;;;;;24.24;51.82;100759.98;1659784;84;21078;-88
2021/06/06 10:32:23;;;;;;;6.15;3.45;;;;;;;24.24;52.04;100758.61;1651416;84;21187;-89
2021/06/06 10:35:13;;;;;;;5.70;3.67;;;;;;;24.24;51.01;100751.77;1655942;85;21185;-88
2021/06/06 10:37:45;;;;;;;7.37;3.70;;;;;;;24.25;51.09;100755.35;1639292;84;21106;-89
2021/06/06 10:40:43;;;;;;;5.67;2.67;;;;;;;24.28;50.72;100750.46;1650449;84;21107;-89
2021/06/06 10:43:41;;;;;;;8.35;3.00;;;;;;;24.32;50.04;100742.83;1647432;84;21417;-87
2021/06/06 10:46:35;;;;;;;3.75;2.55;;;;;;;24.35;49.62;100742.54;1665952;85;21077;-89
2021/06/06 10:49:11;;;;;;;3.65;2.87;;;;;;;24.35;48.79;100748.02;1673713;84;22278;-89
2021/06/06 10:51:44;;;;;;;3.12;2.35;;;;;;;24.28;48.58;100736.77;1646971;85;21120;-89
2021/06/06 10:54:46;;;;;;;3.50;2.60;;;;;;;24.23;48.37;100747.30;1646879;85;21140;-88
2021/06/06 10:57:24;;;;;;;7.35;2.75;;;;;;;24.14;48.27;100748.14;1647439;85;21174;-89
2021/06/06 11:00:20;;;;;;;4.45;2.95;;;;;;;23.95;49.24;100741.59;1647531;85;21146;-89
2021/06/06 11:03:22;;;;;;;4.22;3.15;;;;;;;23.81;50.16;100739.28;1651792;86;21026;-90
2021/06/06 11:05:53;;;;;;;4.10;2.85;;;;;;;23.68;50.96;100732.17;1654275;84;21905;-89
2021/06/06 11:08:34;;;;;;;4.30;2.90;;;;;;;23.58;51.76;100736.77;1655628;84;21517;-89
2021/06/06 11:11:25;;;;;;;6.15;2.98;;;;;;;23.44;52.48;100737.50;1653093;85;21106;-89
2021/06/06 11:14:14;;;;;;;5.90;3.05;;;;;;;23.35;53.75;100731.52;1656851;86;20991;-89
2021/06/06 11:16:48;;;;;;;4.53;3.40;;;;;;;23.30;54.81;100724.19;1658844;85;21046;-89
2021/06/06 11:19:31;;;;;;;5.85;3.30;;;;;;;23.25;56.39;100727.81;1656701;84;21124;-89
2021/06/06 11:22:08;;;;;;;4.08;3.10;;;;;;;23.21;56.79;100723.63;1660901;85;21547;-88
2021/06/06 11:24:46;;;;;;;5.90;3.25;;;;;;;23.14;56.88;100731.03;1663145;84;21125;-89
2021/06/06 11:27:29;;;;;;;6.50;3.00;;;;;;;23.00;57.47;100729.52;1668860;84;21013;-89
2021/06/06 11:30:24;;;;;;;7.12;2.80;;;;;;;22.83;57.91;100724.15;1655941;84;21088;-88
2021/06/06 11:33:04;;;;;;;4.87;3.00;;;;;;;22.70;58.70;100734.44;1673857;84;21788;-89
2021/06/06 11:35:39;;;;;;;6.20;3.40;;;;;;;22.57;59.14;100735.48;1663824;84;21661;-89
2021/06/06 11:38:31;;;;;;;6.40;2.87;;;;;;;22.46;60.09;100727.34;1661815;84;21049;-89
2021/06/06 11:41:25;;;;;;;5.37;3.27;;;;;;;22.35;60.69;100721.91;1668331;84;21617;-88
2021/06/06 11:44:08;;;;;;;10.70;4.08;;;;;;;22.24;62.50;100722.35;1668651;84;21185;-89
2021/06/06 11:46:59;;;;;;;7.22;4.05;;;;;;;22.15;64.54;100716.29;1665914;83;21127;-91
2021/06/06 11:49:49;;;;;;;11.95;4.25;;;;;;;21.99;67.12;100720.30;1655227;84;21161;-88
2021/06/06 11:52:28;;;;;;;7.53;4.28;;;;;;;21.80;67.87;100713.32;1649814;84;21011;-88
2021/06/06 11:55:00;;;;;;;8.05;3.83;;;;;;;21.61;69.50;100702.02;1652666;84;21598;-88
2021/06/06 11:57:39;;;;;;;7.58;3.95;;;;;;;21.49;70.03;100711.72;1667846;84;21226;-89
2021/06/06 12:00:27;;;;;;;8.20;4.83;;;;;;;21.35;70.57;100702.83;1664079;84;21140;-88
2021/06/06 12:02:54;;;;;;;7.47;4.40;;;;;;;21.25;71.95;100696.37;1663651;83;38549;-89